createdAt,value
2018-04-18T00:02:59.515Z,18.30
2018-04-18T00:07:51.035Z,18.47
2018-04-18T00:12:42.604Z,20.40
2018-04-18T00:17:35.161Z,14.20
2018-04-18T00:22:26.714Z,16.97
2018-04-18T00:27:18.224Z,20.70
2018-04-18T00:32:09.759Z,18.10
2018-04-18T00:37:19.185Z,19.17
2018-04-18T00:42:12.895Z,11.93
2018-04-18T00:47:06.486Z,14.83
2018-04-18T00:51:58.039Z,16.23
2018-04-18T00:56:50.305Z,17.37
2018-04-18T01:01:42.600Z,12.50
2018-04-18T01:06:34.134Z,11.53
2018-04-18T01:11:25.719Z,10.03
2018-04-18T01:16:17.285Z,12.53
2018-04-18T01:21:08.865Z,14.17
2018-04-18T01:26:00.443Z,10.80
2018-04-18T01:30:51.987Z,11.73
2018-04-18T01:35:43.482Z,12.03
2018-04-18T01:40:34.976Z,11.23
2018-04-18T01:45:26.568Z,7.47
2018-04-18T01:50:18.833Z,8.03
2018-04-18T01:55:10.346Z,6.43
2018-04-18T02:00:02.657Z,7.73
2018-04-18T02:05:09.301Z,9.47
2018-04-18T02:10:05.659Z,8.23
2018-04-18T02:14:57.165Z,5.40
2018-04-18T02:19:48.802Z,8.17
2018-04-18T02:24:41.072Z,7.60
2018-04-18T02:29:33.565Z,8.20
2018-04-18T02:34:25.111Z,6.13
2018-04-18T02:39:16.732Z,10.63
2018-04-18T02:44:08.240Z,8.37
2018-04-18T02:48:59.806Z,6.80
2018-04-18T02:53:51.415Z,4.83
2018-04-18T02:58:42.968Z,6.03
2018-04-18T03:03:34.504Z,8.57
2018-04-18T03:08:26.067Z,6.50
2018-04-18T03:13:17.597Z,5.67
2018-04-18T03:18:09.081Z,6.13
2018-04-18T03:23:00.610Z,7.60
2018-04-18T03:27:52.148Z,7.50
2018-04-18T03:32:43.696Z,5.77
2018-04-18T03:37:35.332Z,7.30
2018-04-18T03:42:26.859Z,5.93
2018-04-18T03:47:18.644Z,7.53
2018-04-18T03:52:10.191Z,7.27
2018-04-18T03:57:01.769Z,10.33
2018-04-18T04:01:53.253Z,11.47
2018-04-18T04:06:44.773Z,7.83
2018-04-18T04:11:36.422Z,6.07
2018-04-18T04:16:46.542Z,6.47
2018-04-18T04:21:56.652Z,9.20
2018-04-18T04:26:48.155Z,8.37
2018-04-18T04:31:40.642Z,8.20
2018-04-18T04:36:32.167Z,9.07
2018-04-18T04:41:23.772Z,12.27
2018-04-18T04:46:15.320Z,12.00
2018-04-18T04:51:06.891Z,8.77
2018-04-18T04:55:58.415Z,9.13
2018-04-18T05:00:49.983Z,7.67
2018-04-18T05:05:42.251Z,12.60
2018-04-18T05:10:33.842Z,11.27
2018-04-18T05:15:25.393Z,6.83
2018-04-18T05:20:17.035Z,9.17
2018-04-18T05:25:09.322Z,9.53
2018-04-18T05:30:00.908Z,9.93
2018-04-18T05:34:52.419Z,11.33
2018-04-18T05:39:44.941Z,9.13
2018-04-18T05:44:36.458Z,8.33
2018-04-18T05:49:28.751Z,8.67
2018-04-18T05:54:21.043Z,11.90
2018-04-18T05:59:12.597Z,12.80
2018-04-18T06:04:04.919Z,7.53
2018-04-18T06:08:56.460Z,9.40
2018-04-18T06:13:47.967Z,8.20
2018-04-18T06:18:39.478Z,7.73
2018-04-18T06:23:31.012Z,8.47
2018-04-18T06:28:22.522Z,9.40
2018-04-18T06:33:14.795Z,12.63
2018-04-18T06:38:06.324Z,7.60
2018-04-18T06:42:57.820Z,7.77
2018-04-18T06:47:50.128Z,8.97
2018-04-18T06:52:41.665Z,7.00
2018-04-18T06:57:33.180Z,11.77
2018-04-18T07:02:24.711Z,9.37
2018-04-18T07:07:16.233Z,7.23
2018-04-18T07:12:07.792Z,6.90
2018-04-18T07:16:59.302Z,8.90
2018-04-18T07:21:50.850Z,10.87
2018-04-18T07:26:42.402Z,10.20
2018-04-18T07:31:33.937Z,6.30
2018-04-18T07:36:25.475Z,12.70
2018-04-18T07:41:17.091Z,7.50
2018-04-18T07:46:08.616Z,8.27
2018-04-18T07:51:00.162Z,11.37
2018-04-18T07:55:51.708Z,10.73
2018-04-18T08:00:43.285Z,8.63
2018-04-18T08:05:34.809Z,9.50
2018-04-18T08:10:26.346Z,9.83
2018-04-18T08:15:17.943Z,11.87
2018-04-18T08:20:10.287Z,9.80
2018-04-18T08:25:01.840Z,11.97
2018-04-18T08:29:53.368Z,8.33
2018-04-18T08:34:44.888Z,7.13
2018-04-18T08:39:36.429Z,12.70
2018-04-18T08:44:27.952Z,7.93
2018-04-18T08:49:19.553Z,8.67
2018-04-18T08:54:11.829Z,7.60
2018-04-18T08:59:03.424Z,9.87
2018-04-18T09:03:55.002Z,10.17
2018-04-18T09:08:46.535Z,11.43
2018-04-18T09:13:38.059Z,10.77
2018-04-18T09:18:30.342Z,10.30
2018-04-18T09:23:21.853Z,12.60
2018-04-18T09:28:14.300Z,14.03
2018-04-18T09:33:06.698Z,13.17
2018-04-18T09:37:58.279Z,15.00
2018-04-18T09:42:50.583Z,15.13
2018-04-18T10:16:14.845Z,19.17
2018-04-18T10:21:06.344Z,15.87
2018-04-18T10:25:58.630Z,15.17
2018-04-18T10:30:50.141Z,16.07
2018-04-18T10:35:42.398Z,14.67
2018-04-18T10:40:34.657Z,13.80
2018-04-18T10:45:26.190Z,12.60
2018-04-18T10:50:17.725Z,13.63
2018-04-18T10:55:09.297Z,11.93
2018-04-18T11:00:00.825Z,13.13
2018-04-18T11:04:52.373Z,9.57
2018-04-18T11:09:43.972Z,13.40
2018-04-18T11:14:35.476Z,9.37
2018-04-18T11:19:27.814Z,9.23
2018-04-18T11:24:19.450Z,9.47
2018-04-18T11:29:12.498Z,5.47
2018-04-18T11:34:04.804Z,9.77
2018-04-18T11:38:56.427Z,6.47
2018-04-18T11:43:48.731Z,7.07
2018-04-18T11:48:40.269Z,5.20
2018-04-18T11:53:31.814Z,5.57
2018-04-18T11:58:23.351Z,7.87
2018-04-18T12:03:15.455Z,4.57
2018-04-18T12:08:07.051Z,5.10
2018-04-18T12:12:58.519Z,5.87
2018-04-18T12:17:50.088Z,4.57
2018-04-18T12:22:42.361Z,6.57
2018-04-18T12:27:33.925Z,4.93
2018-04-18T12:32:26.175Z,7.67
2018-04-18T12:37:18.423Z,4.80
2018-04-18T12:42:10.668Z,5.97
2018-04-18T12:47:02.983Z,6.30
2018-04-18T12:51:54.584Z,5.93
2018-04-18T12:56:46.101Z,5.97
2018-04-18T13:01:38.414Z,8.53
2018-04-18T13:06:29.960Z,4.73
2018-04-18T13:11:21.480Z,5.10
2018-04-18T13:16:13.007Z,6.00
2018-04-18T13:21:04.613Z,7.30
2018-04-18T13:25:56.778Z,4.93
2018-04-18T13:30:48.310Z,6.97
2018-04-18T13:35:40.123Z,6.13
2018-04-18T13:40:31.694Z,7.13
2018-04-18T13:45:24.081Z,4.63
2018-04-18T13:50:15.611Z,7.00
2018-04-18T13:55:07.139Z,4.07
2018-04-18T13:59:58.653Z,6.00
2018-04-18T14:04:50.171Z,5.60
2018-04-18T14:09:41.701Z,4.37
2018-04-18T14:14:33.272Z,6.10
2018-04-18T14:19:24.903Z,4.30
2018-04-18T14:24:16.421Z,4.47
2018-04-18T14:29:07.927Z,4.23
2018-04-18T14:33:59.448Z,6.60
2018-04-18T14:38:51.715Z,5.60
2018-04-18T14:43:43.229Z,5.37
2018-04-18T14:48:35.491Z,5.23
2018-04-18T14:53:27.085Z,8.13
2018-04-18T14:58:18.574Z,2.70
2018-04-18T15:03:10.079Z,5.30
2018-04-18T15:08:02.367Z,3.17
2018-04-18T15:12:53.877Z,4.73
2018-04-18T15:17:45.508Z,4.43
2018-04-18T15:22:37.813Z,3.87
2018-04-18T15:27:29.272Z,9.53
2018-04-18T15:32:21.115Z,7.57
2018-04-18T15:37:12.653Z,6.43
2018-04-18T15:42:04.910Z,6.50
2018-04-18T15:46:57.187Z,4.73
2018-04-18T15:51:48.747Z,3.43
2018-04-18T15:56:40.360Z,5.03
2018-04-18T16:01:31.912Z,7.97
2018-04-18T16:06:23.532Z,4.47
2018-04-18T16:11:15.082Z,6.77
2018-04-18T16:16:07.502Z,6.03
2018-04-18T16:20:59.805Z,5.33
2018-04-18T16:25:51.321Z,4.80
2018-04-18T16:30:42.851Z,11.70
2018-04-18T16:35:34.420Z,6.33
2018-04-18T16:40:25.953Z,6.43
2018-04-18T16:45:17.504Z,7.37
2018-04-18T16:50:09.003Z,10.50
2018-04-18T16:55:00.541Z,7.63
2018-04-18T16:59:52.055Z,5.30
2018-04-18T17:04:43.528Z,6.57
2018-04-18T17:09:35.033Z,4.67
2018-04-18T17:14:27.364Z,6.23
2018-04-18T17:19:18.955Z,5.53
2018-04-18T17:24:10.475Z,5.57
2018-04-18T17:29:01.989Z,6.03
2018-04-18T17:33:54.169Z,5.00
2018-04-18T17:38:45.696Z,6.47
2018-04-18T17:43:37.214Z,6.23
2018-04-18T17:48:28.724Z,7.70
2018-04-18T17:53:20.188Z,8.07
2018-04-18T17:58:11.713Z,5.87
2018-04-18T18:03:03.227Z,3.63
2018-04-18T18:07:54.747Z,6.10
2018-04-18T18:12:46.291Z,5.33
2018-04-18T18:17:37.842Z,4.97
2018-04-18T18:22:29.361Z,5.20
2018-04-18T18:27:20.989Z,5.17
2018-04-18T18:32:12.531Z,5.77
2018-04-18T18:37:04.036Z,4.07
2018-04-18T18:41:56.287Z,6.67
2018-04-18T18:46:48.536Z,3.93
2018-04-18T18:51:40.817Z,5.20
2018-04-18T18:56:32.329Z,6.73
2018-04-18T19:01:25.527Z,4.03
2018-04-18T19:06:16.995Z,4.33
2018-04-18T19:11:08.545Z,5.83
2018-04-18T19:16:00.077Z,5.77
2018-04-18T19:20:51.623Z,8.93
2018-04-18T19:25:43.927Z,6.93
2018-04-18T19:30:35.421Z,6.03
2018-04-18T19:35:27.741Z,7.80
2018-04-18T19:40:19.270Z,9.43
2018-04-18T19:45:10.795Z,7.77
2018-04-18T19:50:02.357Z,10.30
2018-04-18T19:54:54.349Z,7.90
2018-04-18T19:59:45.907Z,8.00
2018-04-18T20:04:37.387Z,10.90
2018-04-18T20:09:29.705Z,8.93
2018-04-18T20:14:21.235Z,7.62
2018-04-18T20:19:12.796Z,8.53
2018-04-18T20:24:05.073Z,7.90
2018-04-18T20:28:56.641Z,6.57
2018-04-18T20:33:48.164Z,7.57
2018-04-18T20:38:39.733Z,7.70
2018-04-18T20:43:31.243Z,6.50
2018-04-18T20:48:22.785Z,6.53
2018-04-18T20:53:14.307Z,6.77
2018-04-18T20:58:05.846Z,6.20
2018-04-18T21:02:57.357Z,7.10
2018-04-18T21:07:48.891Z,6.60
2018-04-18T21:12:40.362Z,9.23
2018-04-18T21:17:32.000Z,5.75
2018-04-18T21:22:23.522Z,7.37
2018-04-18T21:27:15.098Z,6.57
2018-04-18T21:32:07.355Z,6.10
2018-04-18T21:36:59.675Z,5.73
2018-04-18T21:41:52.113Z,12.05
2018-04-18T21:46:45.002Z,9.70
2018-04-18T21:51:36.596Z,9.73
2018-04-18T21:56:28.098Z,5.57
2018-04-18T22:12:28.113Z,8.83
2018-04-18T22:17:20.389Z,6.70
2018-04-18T22:22:12.044Z,8.87
2018-04-18T22:27:03.577Z,7.27
2018-04-18T22:31:55.074Z,4.97
2018-04-18T22:36:46.642Z,4.57
2018-04-18T22:41:38.834Z,8.40
2018-04-18T22:46:31.093Z,4.63
2018-04-18T22:51:23.376Z,6.20
2018-04-18T22:56:14.863Z,7.07
2018-04-18T23:01:06.389Z,7.17
2018-04-18T23:05:58.654Z,10.70
2018-04-18T23:10:50.951Z,6.07
2018-04-18T23:15:42.484Z,5.83
2018-04-18T23:20:34.011Z,6.13
2018-04-18T23:25:25.595Z,6.93
2018-04-18T23:30:17.153Z,7.77
2018-04-18T23:35:09.482Z,5.70
2018-04-18T23:40:01.012Z,5.67
2018-04-18T23:44:52.566Z,7.60
2018-04-18T23:49:44.918Z,13.27
2018-04-18T23:54:37.167Z,7.60
2018-04-18T23:59:29.484Z,5.20
